KBEH/BEH METAR and TAF weather

Enter ICAO airport designator
Station Type Date Time Source
KBEH METAR 2018/04/20 07:53 UTC NOAA

KBEH 200753Z AUTO 27004KT 8SM CLR M04/M06 A3043 RMK AO2 SLP313 I1000 T10391061


Station Type Date Time Source
KBEH Decoded METAR 2018/04/20 07:53 UTC NOAA

SOUTHWEST MICHIGAN REGIONAL, MI, United States (KBEH) 42-08N 86-25W 191M
Apr 20, 2018 - 03:53 AM EDT / 2018.04.20 0753 UTC
Wind: from the W (270 degrees) at 5 MPH (4 KT):0
Visibility: 8 mile(s):0
Sky conditions: clear
Temperature: 25.0 F (-3.9 C)
Windchill: 19 F (-7 C):1
Dew Point: 21.0 F (-6.1 C)
Relative Humidity: 84%
Pressure (altimeter): 30.43 in. Hg (1030 hPa)
ob: KBEH 200753Z AUTO 27004KT 8SM CLR M04/M06 A3043 RMK AO2 SLP313 I1000 T10391061
cycle: 8

Station Type Date Time Source
KBEH TAF UTC NOAA

Error!


Example: see airport list